sensor_id;sensor_type;location;lat;lon;timestamp;pressure;altitude;pressure_sealevel;temperature;humidity
11525;BME280;5819;49.648;8.330;2023-02-22T00:00:44;100371.66;;;5.56;100.00
11525;BME280;5819;49.648;8.330;2023-02-22T00:03:17;100372.34;;;5.62;100.00
11525;BME280;5819;49.648;8.330;2023-02-22T00:05:52;100380.03;;;5.65;100.00
11525;BME280;5819;49.648;8.330;2023-02-22T00:08:22;100367.81;;;5.74;100.00
11525;BME280;5819;49.648;8.330;2023-02-22T00:10:50;100367.81;;;5.74;100.00
11525;BME280;5819;49.648;8.330;2023-02-22T00:13:18;100365.97;;;5.79;100.00
11525;BME280;5819;49.648;8.330;2023-02-22T00:15:50;100360.97;;;5.73;100.00
11525;BME280;5819;49.648;8.330;2023-02-22T00:18:18;100356.69;;;5.70;100.00
11525;BME280;5819;49.648;8.330;2023-02-22T00:20:46;100357.78;;;5.61;100.00
11525;BME280;5819;49.648;8.330;2023-02-22T00:23:16;100358.66;;;5.59;100.00
11525;BME280;5819;49.648;8.330;2023-02-22T00:25:46;100362.25;;;5.53;100.00
11525;BME280;5819;49.648;8.330;2023-02-22T00:28:15;100362.34;;;5.49;100.00
11525;BME280;5819;49.648;8.330;2023-02-22T00:30:44;100351.28;;;5.42;100.00
11525;BME280;5819;49.648;8.330;2023-02-22T00:33:15;100353.25;;;5.31;100.00
11525;BME280;5819;49.648;8.330;2023-02-22T00:35:44;100356.97;;;5.18;100.00
11525;BME280;5819;49.648;8.330;2023-02-22T00:38:14;100363.19;;;5.08;100.00
11525;BME280;5819;49.648;8.330;2023-02-22T00:40:42;100359.84;;;5.03;100.00
11525;BME280;5819;49.648;8.330;2023-02-22T00:43:11;100357.25;;;5.04;100.00
11525;BME280;5819;49.648;8.330;2023-02-22T00:45:40;100356.72;;;4.89;100.00
11525;BME280;5819;49.648;8.330;2023-02-22T00:48:09;100355.72;;;4.96;100.00
11525;BME280;5819;49.648;8.330;2023-02-22T00:50:38;100353.00;;;5.02;100.00
11525;BME280;5819;49.648;8.330;2023-02-22T00:53:06;100359.84;;;5.04;100.00
11525;BME280;5819;49.648;8.330;2023-02-22T00:55:36;100355.47;;;5.08;100.00
11525;BME280;5819;49.648;8.330;2023-02-22T00:58:05;100348.50;;;5.13;100.00
11525;BME280;5819;49.648;8.330;2023-02-22T01:00:35;100350.16;;;5.14;100.00
11525;BME280;5819;49.648;8.330;2023-02-22T01:03:04;100352.88;;;5.08;100.00
11525;BME280;5819;49.648;8.330;2023-02-22T01:05:33;100344.38;;;5.04;100.00
11525;BME280;5819;49.648;8.330;2023-02-22T01:08:06;100332.34;;;5.05;100.00
11525;BME280;5819;49.648;8.330;2023-02-22T01:10:35;100341.75;;;5.06;100.00
11525;BME280;5819;49.648;8.330;2023-02-22T01:13:04;100334.91;;;5.05;100.00
11525;BME280;5819;49.648;8.330;2023-02-22T01:15:36;100333.91;;;5.10;100.00
11525;BME280;5819;49.648;8.330;2023-02-22T01:18:04;100337.25;;;5.15;100.00
11525;BME280;5819;49.648;8.330;2023-02-22T01:20:33;100338.09;;;5.16;100.00
11525;BME280;5819;49.648;8.330;2023-02-22T01:23:02;100335.59;;;5.13;100.00
11525;BME280;5819;49.648;8.330;2023-02-22T01:25:34;100333.13;;;5.07;100.00
11525;BME280;5819;49.648;8.330;2023-02-22T01:28:04;100335.88;;;4.98;100.00
11525;BME280;5819;49.648;8.330;2023-02-22T01:30:34;100341.97;;;4.95;100.00
11525;BME280;5819;49.648;8.330;2023-02-22T01:33:04;100336.72;;;5.01;100.00
11525;BME280;5819;49.648;8.330;2023-02-22T01:35:34;100331.50;;;5.03;100.00
11525;BME280;5819;49.648;8.330;2023-02-22T01:38:02;100334.91;;;5.05;100.00
11525;BME280;5819;49.648;8.330;2023-02-22T01:40:34;100326.09;;;5.15;100.00
11525;BME280;5819;49.648;8.330;2023-02-22T01:43:05;100323.59;;;5.12;100.00
11525;BME280;5819;49.648;8.330;2023-02-22T01:45:49;100318.34;;;5.15;100.00
11525;BME280;5819;49.648;8.330;2023-02-22T01:48:23;100319.13;;;5.20;100.00
11525;BME280;5819;49.648;8.330;2023-02-22T01:50:55;100314.66;;;5.27;100.00
11525;BME280;5819;49.648;8.330;2023-02-22T01:53:27;100305.09;;;5.32;100.00
11525;BME280;5819;49.648;8.330;2023-02-22T01:55:59;100307.72;;;5.30;100.00
11525;BME280;5819;49.648;8.330;2023-02-22T01:58:29;100305.97;;;5.31;100.00
11525;BME280;5819;49.648;8.330;2023-02-22T02:01:00;100299.13;;;5.30;100.00
11525;BME280;5819;49.648;8.330;2023-02-22T02:03:30;100293.16;;;5.28;100.00
11525;BME280;5819;49.648;8.330;2023-02-22T02:06:03;100302.63;;;5.27;100.00
11525;BME280;5819;49.648;8.330;2023-02-22T02:08:35;100298.41;;;5.23;100.00
11525;BME280;5819;49.648;8.330;2023-02-22T02:11:07;100292.47;;;5.19;100.00
11525;BME280;5819;49.648;8.330;2023-02-22T02:13:36;100288.19;;;5.18;100.00
11525;BME280;5819;49.648;8.330;2023-02-22T02:16:04;100289.84;;;5.23;100.00
11525;BME280;5819;49.648;8.330;2023-02-22T02:18:32;100278.66;;;5.22;100.00
11525;BME280;5819;49.648;8.330;2023-02-22T02:21:25;100289.13;;;5.16;100.00
11525;BME280;5819;49.648;8.330;2023-02-22T02:27:13;100289.38;;;5.04;100.00
11525;BME280;5819;49.648;8.330;2023-02-22T02:30:15;100281.63;;;5.05;100.00
11525;BME280;5819;49.648;8.330;2023-02-22T02:32:56;100277.28;;;5.07;100.00
11525;BME280;5819;49.648;8.330;2023-02-22T02:35:37;100281.81;;;4.96;100.00
11525;BME280;5819;49.648;8.330;2023-02-22T02:38:12;100273.31;;;4.91;100.00
11525;BME280;5819;49.648;8.330;2023-02-22T02:40:46;100275.91;;;4.90;100.00
11525;BME280;5819;49.648;8.330;2023-02-22T02:43:21;100275.09;;;4.89;100.00
11525;BME280;5819;49.648;8.330;2023-02-22T02:45:55;100274.25;;;4.87;100.00
11525;BME280;5819;49.648;8.330;2023-02-22T02:48:31;100275.44;;;4.72;100.00
11525;BME280;5819;49.648;8.330;2023-02-22T02:51:04;100278.97;;;4.67;100.00
11525;BME280;5819;49.648;8.330;2023-02-22T02:53:37;100271.94;;;4.75;100.00
11525;BME280;5819;49.648;8.330;2023-02-22T02:56:05;100271.09;;;4.75;100.00
11525;BME280;5819;49.648;8.330;2023-02-22T02:58:43;100263.50;;;4.68;100.00
11525;BME280;5819;49.648;8.330;2023-02-22T03:01:21;100268.03;;;4.56;100.00
11525;BME280;5819;49.648;8.330;2023-02-22T03:04:24;100256.78;;;4.60;100.00
11525;BME280;5819;49.648;8.330;2023-02-22T03:07:18;100253.28;;;4.62;100.00
11525;BME280;5819;49.648;8.330;2023-02-22T03:10:03;100248.97;;;4.64;100.00
11525;BME280;5819;49.648;8.330;2023-02-22T03:12:44;100257.56;;;4.63;100.00
11525;BME280;5819;49.648;8.330;2023-02-22T03:15:22;100255.06;;;4.60;100.00
11525;BME280;5819;49.648;8.330;2023-02-22T03:18:02;100261.31;;;4.49;100.00
11525;BME280;5819;49.648;8.330;2023-02-22T03:20:40;100252.03;;;4.39;100.00
11525;BME280;5819;49.648;8.330;2023-02-22T03:23:13;100255.38;;;4.45;100.00
11525;BME280;5819;49.648;8.330;2023-02-22T03:25:46;100251.03;;;4.47;100.00
11525;BME280;5819;49.648;8.330;2023-02-22T03:28:17;100256.03;;;4.53;100.00
11525;BME280;5819;49.648;8.330;2023-02-22T03:30:51;100251.03;;;4.46;100.00
11525;BME280;5819;49.648;8.330;2023-02-22T03:33:24;100245.34;;;4.30;100.00
11525;BME280;5819;49.648;8.330;2023-02-22T03:36:07;100246.41;;;4.20;100.00
11525;BME280;5819;49.648;8.330;2023-02-22T03:38:39;100248.31;;;4.09;100.00
11525;BME280;5819;49.648;8.330;2023-02-22T03:41:15;100242.47;;;3.99;100.00
11525;BME280;5819;49.648;8.330;2023-02-22T03:43:47;100239.97;;;3.95;100.00
11525;BME280;5819;49.648;8.330;2023-02-22T03:46:16;100240.84;;;3.94;100.00
11525;BME280;5819;49.648;8.330;2023-02-22T03:48:50;100240.97;;;3.86;100.00
11525;BME280;5819;49.648;8.330;2023-02-22T03:51:22;100243.81;;;3.72;100.00
11525;BME280;5819;49.648;8.330;2023-02-22T03:53:56;100241.34;;;3.65;100.00
11525;BME280;5819;49.648;8.330;2023-02-22T03:56:31;100246.59;;;3.59;100.00
11525;BME280;5819;49.648;8.330;2023-02-22T03:59:04;100249.28;;;3.51;100.00
11525;BME280;5819;49.648;8.330;2023-02-22T04:01:33;100242.47;;;3.47;100.00
11525;BME280;5819;49.648;8.330;2023-02-22T04:04:02;100253.81;;;3.36;100.00
11525;BME280;5819;49.648;8.330;2023-02-22T04:06:33;100243.66;;;3.26;100.00
11525;BME280;5819;49.648;8.330;2023-02-22T04:09:02;100249.66;;;3.25;100.00
11525;BME280;5819;49.648;8.330;2023-02-22T04:11:30;100242.16;;;3.12;100.00
11525;BME280;5819;49.648;8.330;2023-02-22T04:13:58;100249.88;;;3.10;100.00
11525;BME280;5819;49.648;8.330;2023-02-22T04:16:27;100252.50;;;3.06;100.00
11525;BME280;5819;49.648;8.330;2023-02-22T04:18:56;100253.41;;;3.05;100.00
11525;BME280;5819;49.648;8.330;2023-02-22T04:21:24;100252.31;;;3.21;100.00
11525;BME280;5819;49.648;8.330;2023-02-22T04:23:54;100244.56;;;3.24;100.00
11525;BME280;5819;49.648;8.330;2023-02-22T04:26:22;100249.97;;;3.03;100.00
11525;BME280;5819;49.648;8.330;2023-02-22T04:28:54;100252.66;;;2.95;100.00
11525;BME280;5819;49.648;8.330;2023-02-22T04:31:23;100252.59;;;2.98;100.00
11525;BME280;5819;49.648;8.330;2023-02-22T04:33:53;100249.03;;;3.10;100.00
11525;BME280;5819;49.648;8.330;2023-02-22T04:36:27;100236.97;;;3.15;100.00
11525;BME280;5819;49.648;8.330;2023-02-22T04:39:00;100246.22;;;3.25;100.00
11525;BME280;5819;49.648;8.330;2023-02-22T04:41:29;100247.06;;;3.27;100.00
11525;BME280;5819;49.648;8.330;2023-02-22T04:43:57;100246.97;;;3.33;100.00
11525;BME280;5819;49.648;8.330;2023-02-22T04:46:26;100246.88;;;3.39;100.00
11525;BME280;5819;49.648;8.330;2023-02-22T04:48:55;100244.25;;;3.44;100.00
11525;BME280;5819;49.648;8.330;2023-02-22T04:51:26;100243.41;;;3.43;100.00
11525;BME280;5819;49.648;8.330;2023-02-22T04:54:02;100245.13;;;3.41;100.00
11525;BME280;5819;49.648;8.330;2023-02-22T04:56:33;100235.75;;;3.39;100.00
11525;BME280;5819;49.648;8.330;2023-02-22T04:59:01;100243.47;;;3.40;100.00
11525;BME280;5819;49.648;8.330;2023-02-22T05:01:30;100236.66;;;3.36;100.00
11525;BME280;5819;49.648;8.330;2023-02-22T05:04:00;100232.38;;;3.35;100.00
11525;BME280;5819;49.648;8.330;2023-02-22T05:06:29;100230.72;;;3.31;100.00
11525;BME280;5819;49.648;8.330;2023-02-22T05:08:57;100230.78;;;3.28;100.00
11525;BME280;5819;49.648;8.330;2023-02-22T05:11:27;100227.41;;;3.24;100.00
11525;BME280;5819;49.648;8.330;2023-02-22T05:13:55;100221.97;;;3.43;100.00
11525;BME280;5819;49.648;8.330;2023-02-22T05:16:23;100227.13;;;3.43;100.00
11525;BME280;5819;49.648;8.330;2023-02-22T05:18:52;100227.00;;;3.50;100.00
11525;BME280;5819;49.648;8.330;2023-02-22T05:21:19;100234.66;;;3.53;100.00
11525;BME280;5819;49.648;8.330;2023-02-22T05:23:47;100227.06;;;3.47;100.00
11525;BME280;5819;49.648;8.330;2023-02-22T05:26:15;100225.41;;;3.45;100.00
11525;BME280;5819;49.648;8.330;2023-02-22T05:28:45;100229.63;;;3.49;100.00
11525;BME280;5819;49.648;8.330;2023-02-22T05:31:13;100233.09;;;3.45;100.00
11525;BME280;5819;49.648;8.330;2023-02-22T05:33:41;100229.69;;;3.44;100.00
11525;BME280;5819;49.648;8.330;2023-02-22T05:36:09;100230.41;;;3.52;100.00
11525;BME280;5819;49.648;8.330;2023-02-22T05:38:37;100227.78;;;3.57;100.00
11525;BME280;5819;49.648;8.330;2023-02-22T05:41:09;100225.94;;;3.65;100.00
11525;BME280;5819;49.648;8.330;2023-02-22T05:43:38;100226.72;;;3.67;100.00
11525;BME280;5819;49.648;8.330;2023-02-22T05:46:08;100237.94;;;3.63;100.00
11525;BME280;5819;49.648;8.330;2023-02-22T05:48:36;100231.06;;;3.65;100.00
11525;BME280;5819;49.648;8.330;2023-02-22T05:51:04;100231.94;;;3.62;100.00
11525;BME280;5819;49.648;8.330;2023-02-22T05:53:32;100224.09;;;3.71;100.00
11525;BME280;5819;49.648;8.330;2023-02-22T05:56:00;100218.97;;;3.70;100.00
11525;BME280;5819;49.648;8.330;2023-02-22T05:58:29;100231.88;;;3.68;100.00
11525;BME280;5819;49.648;8.330;2023-02-22T06:00:57;100227.50;;;3.72;100.00
11525;BME280;5819;49.648;8.330;2023-02-22T06:03:30;100220.59;;;3.75;100.00
11525;BME280;5819;49.648;8.330;2023-02-22T06:05:58;100225.75;;;3.74;100.00
11525;BME280;5819;49.648;8.330;2023-02-22T06:08:25;100227.47;;;3.73;100.00
11525;BME280;5819;49.648;8.330;2023-02-22T06:10:54;100223.16;;;3.75;100.00
11525;BME280;5819;49.648;8.330;2023-02-22T06:13:22;100223.94;;;3.81;100.00
11525;BME280;5819;49.648;8.330;2023-02-22T06:15:49;100225.63;;;3.82;100.00
11525;BME280;5819;49.648;8.330;2023-02-22T06:18:17;100224.81;;;3.78;100.00
11525;BME280;5819;49.648;8.330;2023-02-22T06:20:46;100218.88;;;3.74;100.00
11525;BME280;5819;49.648;8.330;2023-02-22T06:23:14;100225.75;;;3.75;100.00
11525;BME280;5819;49.648;8.330;2023-02-22T06:25:43;100234.38;;;3.71;100.00
11525;BME280;5819;49.648;8.330;2023-02-22T06:28:11;100231.75;;;3.76;100.00
11525;BME280;5819;49.648;8.330;2023-02-22T06:30:40;100230.03;;;3.75;100.00
11525;BME280;5819;49.648;8.330;2023-02-22T06:33:09;100228.31;;;3.74;100.00
11525;BME280;5819;49.648;8.330;2023-02-22T06:35:37;100229.19;;;3.74;100.00
11525;BME280;5819;49.648;8.330;2023-02-22T06:38:07;100226.59;;;3.74;100.00
11525;BME280;5819;49.648;8.330;2023-02-22T06:40:35;100239.53;;;3.70;100.00
11525;BME280;5819;49.648;8.330;2023-02-22T06:43:02;100243.75;;;3.75;100.00
11525;BME280;5819;49.648;8.330;2023-02-22T06:45:30;100236.03;;;3.74;100.00
11525;BME280;5819;49.648;8.330;2023-02-22T06:47:58;100233.44;;;3.75;100.00
11525;BME280;5819;49.648;8.330;2023-02-22T06:50:28;100237.81;;;3.70;100.00
11525;BME280;5819;49.648;8.330;2023-02-22T06:52:59;100243.94;;;3.65;100.00
11525;BME280;5819;49.648;8.330;2023-02-22T06:55:30;100253.38;;;3.63;100.00
11525;BME280;5819;49.648;8.330;2023-02-22T06:57:59;100249.09;;;3.63;100.00
11525;BME280;5819;49.648;8.330;2023-02-22T07:00:28;100254.84;;;3.77;100.00
11525;BME280;5819;49.648;8.330;2023-02-22T07:02:58;100254.63;;;3.91;100.00
11525;BME280;5819;49.648;8.330;2023-02-22T07:05:27;100251.00;;;4.01;100.00
11525;BME280;5819;49.648;8.330;2023-02-22T07:08:03;100263.75;;;4.09;100.00
11525;BME280;5819;49.648;8.330;2023-02-22T07:10:34;100265.31;;;4.17;100.00
11525;BME280;5819;49.648;8.330;2023-02-22T07:13:04;100264.28;;;4.26;100.00
11525;BME280;5819;49.648;8.330;2023-02-22T07:15:35;100260.84;;;4.29;100.00
11525;BME280;5819;49.648;8.330;2023-02-22T07:18:07;100268.47;;;4.33;100.00
11525;BME280;5819;49.648;8.330;2023-02-22T07:20:47;100269.19;;;4.41;100.00
11525;BME280;5819;49.648;8.330;2023-02-22T07:23:29;100267.34;;;4.46;100.00
11525;BME280;5819;49.648;8.330;2023-02-22T07:26:00;100267.25;;;4.52;100.00
11525;BME280;5819;49.648;8.330;2023-02-22T07:28:29;100264.50;;;4.60;100.00
11525;BME280;5819;49.648;8.330;2023-02-22T07:30:57;100263.50;;;4.67;100.00
11525;BME280;5819;49.648;8.330;2023-02-22T07:33:26;100262.47;;;4.76;100.00
11525;BME280;5819;49.648;8.330;2023-02-22T07:35:54;100261.38;;;4.87;100.00
11525;BME280;5819;49.648;8.330;2023-02-22T07:38:22;100259.41;;;4.98;100.00
11525;BME280;5819;49.648;8.330;2023-02-22T07:40:50;100255.81;;;5.07;100.00
11525;BME280;5819;49.648;8.330;2023-02-22T07:43:20;100252.34;;;5.08;100.00
11525;BME280;5819;49.648;8.330;2023-02-22T07:45:52;100255.63;;;5.14;100.00
11525;BME280;5819;49.648;8.330;2023-02-22T07:48:22;100250.31;;;5.22;100.00
11525;BME280;5819;49.648;8.330;2023-02-22T07:50:50;100250.97;;;5.30;100.00
11525;BME280;5819;49.648;8.330;2023-02-22T07:53:20;100249.16;;;5.34;100.00
11525;BME280;5819;49.648;8.330;2023-02-22T07:55:48;100241.22;;;5.44;100.00
11525;BME280;5819;49.648;8.330;2023-02-22T07:58:19;100244.66;;;5.43;100.00
11525;BME280;5819;49.648;8.330;2023-02-22T08:00:48;100246.25;;;5.49;100.00
11525;BME280;5819;49.648;8.330;2023-02-22T08:03:17;100250.22;;;5.62;100.00
11525;BME280;5819;49.648;8.330;2023-02-22T08:05:47;100249.28;;;5.66;100.00
11525;BME280;5819;49.648;8.330;2023-02-22T08:08:16;100242.03;;;5.82;100.00
11525;BME280;5819;49.648;8.330;2023-02-22T08:10:46;100246.94;;;5.92;100.00
11525;BME280;5819;49.648;8.330;2023-02-22T08:13:14;100250.22;;;5.99;100.00
11525;BME280;5819;49.648;8.330;2023-02-22T08:15:44;100242.44;;;6.00;100.00
11525;BME280;5819;49.648;8.330;2023-02-22T08:18:16;100247.03;;;5.89;100.00
11525;BME280;5819;49.648;8.330;2023-02-22T08:20:47;100251.38;;;5.86;100.00
11525;BME280;5819;49.648;8.330;2023-02-22T08:23:17;100250.28;;;5.97;100.00
11525;BME280;5819;49.648;8.330;2023-02-22T08:25:45;100254.28;;;6.07;100.00
11525;BME280;5819;49.648;8.330;2023-02-22T08:28:15;100252.16;;;6.23;100.00
11525;BME280;5819;49.648;8.330;2023-02-22T08:30:45;100252.53;;;6.42;100.00
11525;BME280;5819;49.648;8.330;2023-02-22T08:33:15;100247.78;;;6.57;100.00
11525;BME280;5819;49.648;8.330;2023-02-22T08:35:46;100244.81;;;6.71;100.00
11525;BME280;5819;49.648;8.330;2023-02-22T08:38:19;100245.41;;;6.81;100.00
11525;BME280;5819;49.648;8.330;2023-02-22T08:40:47;100247.47;;;6.68;100.00
11525;BME280;5819;49.648;8.330;2023-02-22T08:43:17;100248.38;;;6.96;100.00
11525;BME280;5819;49.648;8.330;2023-02-22T08:45:48;100237.66;;;7.10;100.00
11525;BME280;5819;49.648;8.330;2023-02-22T08:48:18;100237.19;;;7.25;100.00
11525;BME280;5819;49.648;8.330;2023-02-22T08:50:46;100240.38;;;7.33;100.00
11525;BME280;5819;49.648;8.330;2023-02-22T08:53:15;100245.81;;;7.52;100.00
11525;BME280;5819;49.648;8.330;2023-02-22T08:55:44;100237.84;;;7.84;100.00
11525;BME280;5819;49.648;8.330;2023-02-22T08:58:12;100238.59;;;7.88;100.00
11525;BME280;5819;49.648;8.330;2023-02-22T09:00:41;100236.88;;;8.13;100.00
11525;BME280;5819;49.648;8.330;2023-02-22T09:03:13;100237.22;;;8.29;100.00
11525;BME280;5819;49.648;8.330;2023-02-22T09:05:42;100228.00;;;8.45;100.00
11525;BME280;5819;49.648;8.330;2023-02-22T09:08:10;100229.63;;;8.48;100.00
11525;BME280;5819;49.648;8.330;2023-02-22T09:10:39;100230.13;;;8.34;100.00
11525;BME280;5819;49.648;8.330;2023-02-22T09:13:07;100233.22;;;8.19;100.00
11525;BME280;5819;49.648;8.330;2023-02-22T09:15:35;100226.97;;;8.24;100.00
11525;BME280;5819;49.648;8.330;2023-02-22T09:18:04;100222.53;;;8.53;100.00
11525;BME280;5819;49.648;8.330;2023-02-22T09:20:35;100218.63;;;8.66;100.00
11525;BME280;5819;49.648;8.330;2023-02-22T09:23:04;100216.00;;;8.89;100.00
11525;BME280;5819;49.648;8.330;2023-02-22T09:25:32;100215.03;;;8.91;100.00
11525;BME280;5819;49.648;8.330;2023-02-22T09:28:01;100213.78;;;9.02;100.00
11525;BME280;5819;49.648;8.330;2023-02-22T09:30:31;100212.16;;;8.99;100.00
11525;BME280;5819;49.648;8.330;2023-02-22T09:33:01;100209.25;;;9.07;100.00
11525;BME280;5819;49.648;8.330;2023-02-22T09:35:30;100207.63;;;9.04;100.00
11525;BME280;5819;49.648;8.330;2023-02-22T09:38:04;100205.59;;;9.12;100.00
11525;BME280;5819;49.648;8.330;2023-02-22T09:40:34;100206.31;;;9.16;100.00
11525;BME280;5819;49.648;8.330;2023-02-22T09:43:17;100203.03;;;9.11;100.00
11525;BME280;5819;49.648;8.330;2023-02-22T09:46:01;100207.88;;;8.98;100.00
11525;BME280;5819;49.648;8.330;2023-02-22T09:48:33;100194.78;;;9.01;100.00
11525;BME280;5819;49.648;8.330;2023-02-22T09:51:08;100192.63;;;9.12;100.00
11525;BME280;5819;49.648;8.330;2023-02-22T09:53:42;100198.06;;;9.06;100.00
11525;BME280;5819;49.648;8.330;2023-02-22T09:56:13;100189.16;;;8.90;100.00
11525;BME280;5819;49.648;8.330;2023-02-22T09:58:45;100187.72;;;9.05;100.00
11525;BME280;5819;49.648;8.330;2023-02-22T10:01:21;100190.28;;;9.06;100.00
11525;BME280;5819;49.648;8.330;2023-02-22T10:03:58;100191.59;;;9.16;99.73
11525;BME280;5819;49.648;8.330;2023-02-22T10:06:27;100188.03;;;9.19;98.81
11525;BME280;5819;49.648;8.330;2023-02-22T10:08:59;100187.75;;;9.26;99.57
11525;BME280;5819;49.648;8.330;2023-02-22T10:11:46;100181.25;;;9.36;97.89
11525;BME280;5819;49.648;8.330;2023-02-22T10:17:25;100175.97;;;9.60;96.58
11525;BME280;5819;49.648;8.330;2023-02-22T10:20:07;100180.47;;;9.56;96.55
11525;BME280;5819;49.648;8.330;2023-02-22T10:22:51;100172.72;;;9.75;96.34
11525;BME280;5819;49.648;8.330;2023-02-22T10:25:25;100173.00;;;9.69;96.76
11525;BME280;5819;49.648;8.330;2023-02-22T10:27:56;100166.97;;;9.88;95.34
11525;BME280;5819;49.648;8.330;2023-02-22T10:30:27;100169.09;;;9.99;93.23
11525;BME280;5819;49.648;8.330;2023-02-22T10:33:04;100166.06;;;10.10;92.65
11525;BME280;5819;49.648;8.330;2023-02-22T10:35:36;100166.41;;;10.22;92.25
11525;BME280;5819;49.648;8.330;2023-02-22T10:38:12;100158.41;;;10.27;91.70
11525;BME280;5819;49.648;8.330;2023-02-22T10:40:47;100157.06;;;10.18;90.87
11525;BME280;5819;49.648;8.330;2023-02-22T10:43:16;100152.47;;;10.23;91.04
11525;BME280;5819;49.648;8.330;2023-02-22T10:45:44;100157.47;;;10.28;90.73
11525;BME280;5819;49.648;8.330;2023-02-22T10:48:14;100149.13;;;10.21;90.10
11525;BME280;5819;49.648;8.330;2023-02-22T10:50:45;100158.19;;;10.31;90.13
11525;BME280;5819;49.648;8.330;2023-02-22T10:53:13;100144.44;;;10.48;90.44
11525;BME280;5819;49.648;8.330;2023-02-22T10:56:07;100149.66;;;10.67;90.21
11525;BME280;5819;49.648;8.330;2023-02-22T10:58:41;100146.50;;;10.79;88.86
11525;BME280;5819;49.648;8.330;2023-02-22T11:01:21;100141.78;;;10.87;87.31
11525;BME280;5819;49.648;8.330;2023-02-22T11:04:00;100137.81;;;10.97;88.34
11525;BME280;5819;49.648;8.330;2023-02-22T11:06:31;100129.38;;;10.92;87.01
11525;BME280;5819;49.648;8.330;2023-02-22T11:09:06;100130.63;;;11.19;87.69
11525;BME280;5819;49.648;8.330;2023-02-22T11:11:38;100126.38;;;11.36;86.57
11525;BME280;5819;49.648;8.330;2023-02-22T11:14:07;100127.47;;;11.49;86.31
11525;BME280;5819;49.648;8.330;2023-02-22T11:16:38;100126.09;;;11.42;84.38
11525;BME280;5819;49.648;8.330;2023-02-22T11:19:15;100126.69;;;11.64;84.69
11525;BME280;5819;49.648;8.330;2023-02-22T11:21:46;100123.16;;;11.65;83.55
11525;BME280;5819;49.648;8.330;2023-02-22T11:24:18;100114.50;;;11.64;83.20
11525;BME280;5819;49.648;8.330;2023-02-22T11:26:53;100113.97;;;11.58;83.45
11525;BME280;5819;49.648;8.330;2023-02-22T11:29:25;100106.09;;;11.77;84.56
11525;BME280;5819;49.648;8.330;2023-02-22T11:32:00;100102.94;;;11.70;83.50
11525;BME280;5819;49.648;8.330;2023-02-22T11:34:34;100100.13;;;11.75;83.35
11525;BME280;5819;49.648;8.330;2023-02-22T11:37:18;100100.34;;;11.70;83.28
11525;BME280;5819;49.648;8.330;2023-02-22T11:40:04;100102.81;;;11.73;83.32
11525;BME280;5819;49.648;8.330;2023-02-22T11:42:33;100090.69;;;11.55;82.28
11525;BME280;5819;49.648;8.330;2023-02-22T11:45:11;100093.38;;;11.70;83.14
11525;BME280;5819;49.648;8.330;2023-02-22T11:47:49;100082.84;;;11.89;82.00
11525;BME280;5819;49.648;8.330;2023-02-22T11:50:27;100080.38;;;12.03;81.79
11525;BME280;5819;49.648;8.330;2023-02-22T11:53:17;100080.66;;;12.14;81.07
11525;BME280;5819;49.648;8.330;2023-02-22T11:55:59;100071.38;;;12.09;79.73
11525;BME280;5819;49.648;8.330;2023-02-22T11:58:41;100067.50;;;12.00;80.24
11525;BME280;5819;49.648;8.330;2023-02-22T12:01:18;100063.31;;;12.13;80.72
11525;BME280;5819;49.648;8.330;2023-02-22T12:07:13;100062.84;;;12.38;79.56
11525;BME280;5819;49.648;8.330;2023-02-22T12:09:50;100053.56;;;12.48;78.51
11525;BME280;5819;49.648;8.330;2023-02-22T12:12:28;100049.88;;;12.68;77.33
11525;BME280;5819;49.648;8.330;2023-02-22T12:15:07;100040.38;;;12.67;74.95
11525;BME280;5819;49.648;8.330;2023-02-22T12:17:45;100036.50;;;13.04;75.59
11525;BME280;5819;49.648;8.330;2023-02-22T12:20:29;100029.94;;;13.42;73.95
11525;BME280;5819;49.648;8.330;2023-02-22T12:23:05;100028.75;;;13.62;72.91
11525;BME280;5819;49.648;8.330;2023-02-22T12:25:43;100022.03;;;13.86;72.12
11525;BME280;5819;49.648;8.330;2023-02-22T12:28:17;100022.47;;;13.93;71.90
11525;BME280;5819;49.648;8.330;2023-02-22T12:30:57;100018.19;;;14.20;70.40
11525;BME280;5819;49.648;8.330;2023-02-22T12:33:37;100010.00;;;14.25;70.28
11525;BME280;5819;49.648;8.330;2023-02-22T12:36:13;100005.94;;;14.35;70.16
11525;BME280;5819;49.648;8.330;2023-02-22T12:38:45;100006.56;;;14.38;69.02
11525;BME280;5819;49.648;8.330;2023-02-22T12:41:24;100003.53;;;14.59;68.76
11525;BME280;5819;49.648;8.330;2023-02-22T12:43:58;99996.25;;;14.76;67.91
11525;BME280;5819;49.648;8.330;2023-02-22T12:46:29;100002.38;;;14.63;68.54
11525;BME280;5819;49.648;8.330;2023-02-22T12:49:07;100007.00;;;14.45;68.27
11525;BME280;5819;49.648;8.330;2023-02-22T12:51:42;100005.72;;;14.38;68.32
11525;BME280;5819;49.648;8.330;2023-02-22T12:54:17;100002.13;;;14.53;68.57
11525;BME280;5819;49.648;8.330;2023-02-22T12:56:50;100007.97;;;14.44;68.26
11525;BME280;5819;49.648;8.330;2023-02-22T12:59:25;99996.44;;;14.46;68.99
11525;BME280;5819;49.648;8.330;2023-02-22T13:02:02;100003.75;;;14.41;69.93
11525;BME280;5819;49.648;8.330;2023-02-22T13:04:37;100000.50;;;14.38;68.72
11525;BME280;5819;49.648;8.330;2023-02-22T13:07:13;100004.38;;;14.45;69.03
11525;BME280;5819;49.648;8.330;2023-02-22T13:10:06;100004.91;;;14.23;69.38
11525;BME280;5819;49.648;8.330;2023-02-22T13:12:45;100002.44;;;14.34;69.72
11525;BME280;5819;49.648;8.330;2023-02-22T13:15:22;99995.16;;;14.39;69.51
11525;BME280;5819;49.648;8.330;2023-02-22T13:18:01;99987.19;;;14.55;69.37
11525;BME280;5819;49.648;8.330;2023-02-22T13:20:37;99988.88;;;14.42;68.94
11525;BME280;5819;49.648;8.330;2023-02-22T13:23:17;99985.78;;;14.49;69.46
11525;BME280;5819;49.648;8.330;2023-02-22T13:25:54;99987.91;;;14.57;68.96
11525;BME280;5819;49.648;8.330;2023-02-22T13:28:31;99982.25;;;14.36;67.95
11525;BME280;5819;49.648;8.330;2023-02-22T13:34:20;99981.25;;;14.39;69.21
11525;BME280;5819;49.648;8.330;2023-02-22T13:37:08;99977.25;;;14.19;70.00
11525;BME280;5819;49.648;8.330;2023-02-22T13:43:12;99975.34;;;14.21;70.06